sensor_id;sensor_type;location;lat;lon;timestamp;pressure;altitude;pressure_sealevel;temperature;humidity
63111;BME280;49201;53.426;10.300;2023-04-03T00:02:04;103431.72;;;0.47;100.00
63111;BME280;49201;53.426;10.300;2023-04-03T00:04:30;103429.03;;;0.46;100.00
63111;BME280;49201;53.426;10.300;2023-04-03T00:06:55;103432.31;;;0.45;100.00
63111;BME280;49201;53.426;10.300;2023-04-03T00:09:21;103432.72;;;0.41;100.00
63111;BME280;49201;53.426;10.300;2023-04-03T00:11:46;103433.59;;;0.41;100.00
63111;BME280;49201;53.426;10.300;2023-04-03T00:14:12;103440.88;;;0.38;100.00
63111;BME280;49201;53.426;10.300;2023-04-03T00:16:37;103444.13;;;0.37;100.00
63111;BME280;49201;53.426;10.300;2023-04-03T00:19:02;103439.63;;;0.34;100.00
63111;BME280;49201;53.426;10.300;2023-04-03T00:21:28;103429.44;;;0.33;100.00
63111;BME280;49201;53.426;10.300;2023-04-03T00:23:53;103438.78;;;0.34;100.00
63111;BME280;49201;53.426;10.300;2023-04-03T00:26:19;103438.03;;;0.35;100.00
63111;BME280;49201;53.426;10.300;2023-04-03T00:28:45;103434.59;;;0.34;100.00
63111;BME280;49201;53.426;10.300;2023-04-03T00:31:14;103440.38;;;0.33;100.00
63111;BME280;49201;53.426;10.300;2023-04-03T00:33:40;103436.25;;;0.34;100.00
63111;BME280;49201;53.426;10.300;2023-04-03T00:36:10;103443.91;;;0.27;100.00
63111;BME280;49201;53.426;10.300;2023-04-03T00:38:36;103441.53;;;0.28;100.00
63111;BME280;49201;53.426;10.300;2023-04-03T00:41:02;103436.94;;;0.24;100.00
63111;BME280;49201;53.426;10.300;2023-04-03T00:43:28;103446.13;;;0.24;100.00
63111;BME280;49201;53.426;10.300;2023-04-03T00:45:58;103441.09;;;0.24;100.00
63111;BME280;49201;53.426;10.300;2023-04-03T00:48:29;103449.69;;;0.26;100.00
63111;BME280;49201;53.426;10.300;2023-04-03T00:50:56;103451.34;;;0.26;100.00
63111;BME280;49201;53.426;10.300;2023-04-03T00:53:25;103449.53;;;0.24;100.00
63111;BME280;49201;53.426;10.300;2023-04-03T00:55:53;103441.81;;;0.23;100.00
63111;BME280;49201;53.426;10.300;2023-04-03T00:58:28;103451.84;;;0.14;100.00
63111;BME280;49201;53.426;10.300;2023-04-03T01:00:58;103451.09;;;0.15;100.00
63111;BME280;49201;53.426;10.300;2023-04-03T01:03:24;103448.13;;;0.11;100.00
63111;BME280;49201;53.426;10.300;2023-04-03T01:05:50;103448.28;;;0.13;100.00
63111;BME280;49201;53.426;10.300;2023-04-03T01:08:16;103446.47;;;0.11;100.00
63111;BME280;49201;53.426;10.300;2023-04-03T01:10:42;103451.81;;;0.06;100.00
63111;BME280;49201;53.426;10.300;2023-04-03T01:13:23;103454.91;;;0.03;100.00
63111;BME280;49201;53.426;10.300;2023-04-03T01:15:49;103451.31;;;0.01;100.00
63111;BME280;49201;53.426;10.300;2023-04-03T01:18:15;103445.25;;;-0.01;100.00
63111;BME280;49201;53.426;10.300;2023-04-03T01:20:58;103451.91;;;-0.01;100.00
63111;BME280;49201;53.426;10.300;2023-04-03T01:23:56;103448.00;;;-0.06;100.00
63111;BME280;49201;53.426;10.300;2023-04-03T01:26:23;103451.28;;;-0.07;100.00
63111;BME280;49201;53.426;10.300;2023-04-03T01:28:53;103457.47;;;-0.12;100.00
63111;BME280;49201;53.426;10.300;2023-04-03T01:33:54;103455.28;;;-0.09;100.00
63111;BME280;49201;53.426;10.300;2023-04-03T01:36:26;103456.63;;;-0.04;100.00
63111;BME280;49201;53.426;10.300;2023-04-03T01:38:54;103455.56;;;-0.06;100.00
63111;BME280;49201;53.426;10.300;2023-04-03T01:41:20;103462.25;;;-0.07;100.00
63111;BME280;49201;53.426;10.300;2023-04-03T01:43:47;103461.25;;;0.00;100.00
63111;BME280;49201;53.426;10.300;2023-04-03T01:46:14;103454.56;;;0.00;100.00
63111;BME280;49201;53.426;10.300;2023-04-03T01:48:40;103457.25;;;0.02;100.00
63111;BME280;49201;53.426;10.300;2023-04-03T01:51:06;103462.47;;;0.03;100.00
63111;BME280;49201;53.426;10.300;2023-04-03T01:53:31;103451.66;;;0.04;100.00
63111;BME280;49201;53.426;10.300;2023-04-03T01:55:57;103460.09;;;0.05;100.00
63111;BME280;49201;53.426;10.300;2023-04-03T01:58:23;103457.59;;;0.05;100.00
63111;BME280;49201;53.426;10.300;2023-04-03T02:00:51;103455.94;;;0.05;100.00
63111;BME280;49201;53.426;10.300;2023-04-03T02:03:16;103453.78;;;0.17;100.00
63111;BME280;49201;53.426;10.300;2023-04-03T02:05:42;103457.22;;;0.17;100.00
63111;BME280;49201;53.426;10.300;2023-04-03T02:08:07;103455.13;;;0.22;100.00
63111;BME280;49201;53.426;10.300;2023-04-03T02:10:34;103453.19;;;0.19;100.00
63111;BME280;49201;53.426;10.300;2023-04-03T02:12:59;103458.41;;;0.21;100.00
63111;BME280;49201;53.426;10.300;2023-04-03T02:15:24;103459.03;;;0.27;100.00
63111;BME280;49201;53.426;10.300;2023-04-03T02:17:50;103457.72;;;0.31;100.00
63111;BME280;49201;53.426;10.300;2023-04-03T02:20:16;103453.88;;;0.34;100.00
63111;BME280;49201;53.426;10.300;2023-04-03T02:22:42;103461.13;;;0.31;100.00
63111;BME280;49201;53.426;10.300;2023-04-03T02:25:08;103458.19;;;0.35;100.00
63111;BME280;49201;53.426;10.300;2023-04-03T02:27:35;103457.75;;;0.39;100.00
63111;BME280;49201;53.426;10.300;2023-04-03T02:30:02;103453.31;;;0.37;100.00
63111;BME280;49201;53.426;10.300;2023-04-03T02:32:28;103455.41;;;0.41;100.00
63111;BME280;49201;53.426;10.300;2023-04-03T02:34:53;103456.59;;;0.44;100.00
63111;BME280;49201;53.426;10.300;2023-04-03T02:37:19;103460.72;;;0.43;100.00
63111;BME280;49201;53.426;10.300;2023-04-03T02:39:45;103455.69;;;0.43;100.00
63111;BME280;49201;53.426;10.300;2023-04-03T02:42:11;103459.38;;;0.38;100.00
63111;BME280;49201;53.426;10.300;2023-04-03T02:44:37;103462.47;;;0.36;100.00
63111;BME280;49201;53.426;10.300;2023-04-03T02:47:04;103458.50;;;0.38;100.00
63111;BME280;49201;53.426;10.300;2023-04-03T02:49:29;103466.50;;;0.43;100.00
63111;BME280;49201;53.426;10.300;2023-04-03T02:51:55;103466.66;;;0.44;100.00
63111;BME280;49201;53.426;10.300;2023-04-03T02:54:20;103463.25;;;0.43;100.00
63111;BME280;49201;53.426;10.300;2023-04-03T02:56:51;103460.59;;;0.42;100.00
63111;BME280;49201;53.426;10.300;2023-04-03T02:59:16;103462.22;;;0.42;100.00
63111;BME280;49201;53.426;10.300;2023-04-03T03:01:42;103472.56;;;0.36;100.00
63111;BME280;49201;53.426;10.300;2023-04-03T03:04:07;103465.16;;;0.38;100.00
63111;BME280;49201;53.426;10.300;2023-04-03T03:06:33;103463.22;;;0.35;100.00
63111;BME280;49201;53.426;10.300;2023-04-03T03:08:58;103461.44;;;0.34;100.00
63111;BME280;49201;53.426;10.300;2023-04-03T03:11:25;103467.69;;;0.38;100.00
63111;BME280;49201;53.426;10.300;2023-04-03T03:13:50;103467.34;;;0.34;100.00
63111;BME280;49201;53.426;10.300;2023-04-03T03:16:16;103464.84;;;0.34;100.00
63111;BME280;49201;53.426;10.300;2023-04-03T03:18:41;103471.19;;;0.31;100.00
63111;BME280;49201;53.426;10.300;2023-04-03T03:21:07;103460.38;;;0.32;100.00
63111;BME280;49201;53.426;10.300;2023-04-03T03:23:35;103459.66;;;0.33;100.00
63111;BME280;49201;53.426;10.300;2023-04-03T03:26:03;103466.81;;;0.37;100.00
63111;BME280;49201;53.426;10.300;2023-04-03T03:28:29;103467.50;;;0.36;100.00
63111;BME280;49201;53.426;10.300;2023-04-03T03:30:57;103470.53;;;0.41;100.00
63111;BME280;49201;53.426;10.300;2023-04-03T03:33:23;103468.88;;;0.41;100.00
63111;BME280;49201;53.426;10.300;2023-04-03T03:35:51;103465.47;;;0.41;100.00
63111;BME280;49201;53.426;10.300;2023-04-03T03:38:16;103462.31;;;0.34;100.00
63111;BME280;49201;53.426;10.300;2023-04-03T03:40:41;103460.53;;;0.33;100.00
63111;BME280;49201;53.426;10.300;2023-04-03T03:43:07;103462.63;;;0.38;100.00
63111;BME280;49201;53.426;10.300;2023-04-03T03:45:33;103464.69;;;0.33;100.00
63111;BME280;49201;53.426;10.300;2023-04-03T03:47:58;103463.63;;;0.31;100.00
63111;BME280;49201;53.426;10.300;2023-04-03T03:50:24;103463.63;;;0.31;100.00
63111;BME280;49201;53.426;10.300;2023-04-03T03:52:50;103469.41;;;0.30;100.00
63111;BME280;49201;53.426;10.300;2023-04-03T03:55:16;103457.97;;;0.25;100.00
63111;BME280;49201;53.426;10.300;2023-04-03T03:57:42;103468.47;;;0.21;100.00
63111;BME280;49201;53.426;10.300;2023-04-03T04:00:07;103470.84;;;0.19;100.00
63111;BME280;49201;53.426;10.300;2023-04-03T04:02:41;103467.13;;;0.16;100.00
63111;BME280;49201;53.426;10.300;2023-04-03T04:05:08;103470.53;;;0.17;100.00
63111;BME280;49201;53.426;10.300;2023-04-03T04:07:33;103457.78;;;0.15;100.00
63111;BME280;49201;53.426;10.300;2023-04-03T04:10:00;103472.00;;;0.14;100.00
63111;BME280;49201;53.426;10.300;2023-04-03T04:12:26;103468.59;;;0.14;100.00
63111;BME280;49201;53.426;10.300;2023-04-03T04:14:51;103469.31;;;0.13;100.00
63111;BME280;49201;53.426;10.300;2023-04-03T04:17:17;103473.47;;;0.13;100.00
63111;BME280;49201;53.426;10.300;2023-04-03T04:19:43;103475.84;;;0.11;100.00
63111;BME280;49201;53.426;10.300;2023-04-03T04:22:09;103474.94;;;0.10;100.00
63111;BME280;49201;53.426;10.300;2023-04-03T04:24:35;103477.28;;;0.09;100.00
63111;BME280;49201;53.426;10.300;2023-04-03T04:27:01;103480.72;;;0.09;100.00
63111;BME280;49201;53.426;10.300;2023-04-03T04:29:30;103479.78;;;0.09;100.00
63111;BME280;49201;53.426;10.300;2023-04-03T04:32:02;103489.16;;;0.10;100.00
63111;BME280;49201;53.426;10.300;2023-04-03T04:34:28;103488.25;;;0.09;100.00
63111;BME280;49201;53.426;10.300;2023-04-03T04:36:54;103494.03;;;0.08;100.00
63111;BME280;49201;53.426;10.300;2023-04-03T04:39:19;103491.19;;;0.05;100.00
63111;BME280;49201;53.426;10.300;2023-04-03T04:41:45;103493.28;;;0.09;100.00
63111;BME280;49201;53.426;10.300;2023-04-03T04:44:10;103498.34;;;0.09;100.00
63111;BME280;49201;53.426;10.300;2023-04-03T04:46:36;103494.19;;;0.10;100.00
63111;BME280;49201;53.426;10.300;2023-04-03T04:49:03;103493.88;;;0.07;100.00
63111;BME280;49201;53.426;10.300;2023-04-03T04:51:30;103503.03;;;0.06;100.00
63111;BME280;49201;53.426;10.300;2023-04-03T04:53:55;103499.47;;;0.04;100.00
63111;BME280;49201;53.426;10.300;2023-04-03T04:56:21;103505.44;;;0.05;100.00
63111;BME280;49201;53.426;10.300;2023-04-03T04:58:47;103506.13;;;0.04;100.00
63111;BME280;49201;53.426;10.300;2023-04-03T05:01:14;103507.03;;;0.04;100.00
63111;BME280;49201;53.426;10.300;2023-04-03T05:03:51;103510.47;;;0.05;100.00
63111;BME280;49201;53.426;10.300;2023-04-03T05:06:17;103511.16;;;0.04;100.00
63111;BME280;49201;53.426;10.300;2023-04-03T05:08:43;103521.81;;;0.01;100.00
63111;BME280;49201;53.426;10.300;2023-04-03T05:11:08;103511.03;;;0.03;100.00
63111;BME280;49201;53.426;10.300;2023-04-03T05:13:34;103520.38;;;0.03;100.00
63111;BME280;49201;53.426;10.300;2023-04-03T05:16:00;103524.50;;;0.03;100.00
63111;BME280;49201;53.426;10.300;2023-04-03T05:18:27;103521.09;;;0.03;100.00
63111;BME280;49201;53.426;10.300;2023-04-03T05:20:55;103521.97;;;0.03;100.00
63111;BME280;49201;53.426;10.300;2023-04-03T05:23:23;103526.44;;;0.05;100.00
63111;BME280;49201;53.426;10.300;2023-04-03T05:25:48;103523.91;;;0.05;100.00
63111;BME280;49201;53.426;10.300;2023-04-03T05:28:15;103521.00;;;0.09;100.00
63111;BME280;49201;53.426;10.300;2023-04-03T05:30:41;103530.25;;;0.17;100.00
63111;BME280;49201;53.426;10.300;2023-04-03T05:33:07;103533.88;;;0.28;100.00
63111;BME280;49201;53.426;10.300;2023-04-03T05:35:42;103535.69;;;0.38;100.00
63111;BME280;49201;53.426;10.300;2023-04-03T05:38:13;103531.94;;;0.50;100.00
63111;BME280;49201;53.426;10.300;2023-04-03T05:40:38;103540.72;;;0.62;100.00
63111;BME280;49201;53.426;10.300;2023-04-03T05:43:05;103543.47;;;0.72;100.00
63111;BME280;49201;53.426;10.300;2023-04-03T05:45:34;103539.31;;;0.81;100.00
63111;BME280;49201;53.426;10.300;2023-04-03T05:48:00;103549.63;;;0.91;100.00
63111;BME280;49201;53.426;10.300;2023-04-03T05:50:26;103546.53;;;1.02;100.00
63111;BME280;49201;53.426;10.300;2023-04-03T05:52:56;103541.84;;;1.13;100.00
63111;BME280;49201;53.426;10.300;2023-04-03T05:55:24;103544.38;;;1.22;100.00
63111;BME280;49201;53.426;10.300;2023-04-03T05:57:49;103543.50;;;1.38;100.00
63111;BME280;49201;53.426;10.300;2023-04-03T06:00:15;103548.59;;;1.55;100.00
63111;BME280;49201;53.426;10.300;2023-04-03T06:02:46;103546.38;;;1.75;100.00
63111;BME280;49201;53.426;10.300;2023-04-03T06:05:17;103542.69;;;1.97;100.00
63111;BME280;49201;53.426;10.300;2023-04-03T06:07:43;103536.00;;;2.15;100.00
63111;BME280;49201;53.426;10.300;2023-04-03T06:10:11;103525.28;;;2.26;100.00
63111;BME280;49201;53.426;10.300;2023-04-03T06:12:37;103524.50;;;2.35;100.00
63111;BME280;49201;53.426;10.300;2023-04-03T06:15:03;103515.69;;;2.49;100.00
63111;BME280;49201;53.426;10.300;2023-04-03T06:17:29;103519.69;;;2.55;100.00
63111;BME280;49201;53.426;10.300;2023-04-03T06:19:55;103504.78;;;2.67;100.00
63111;BME280;49201;53.426;10.300;2023-04-03T06:22:21;103497.31;;;2.77;100.00
63111;BME280;49201;53.426;10.300;2023-04-03T06:24:46;103497.84;;;2.91;100.00
63111;BME280;49201;53.426;10.300;2023-04-03T06:27:12;103484.66;;;3.04;100.00
63111;BME280;49201;53.426;10.300;2023-04-03T06:29:37;103485.91;;;3.17;100.00
63111;BME280;49201;53.426;10.300;2023-04-03T06:32:03;103485.88;;;3.26;100.00
63111;BME280;49201;53.426;10.300;2023-04-03T06:34:28;103504.91;;;3.49;100.00
63111;BME280;49201;53.426;10.300;2023-04-03T06:36:54;103484.25;;;3.63;100.00
63111;BME280;49201;53.426;10.300;2023-04-03T06:39:21;103472.25;;;3.89;100.00
63111;BME280;49201;53.426;10.300;2023-04-03T06:41:48;103436.81;;;3.99;100.00
63111;BME280;49201;53.426;10.300;2023-04-03T06:44:14;103412.78;;;4.14;100.00
63111;BME280;49201;53.426;10.300;2023-04-03T06:46:42;103382.66;;;4.27;100.00
63111;BME280;49201;53.426;10.300;2023-04-03T06:49:08;103382.66;;;4.37;100.00
63111;BME280;49201;53.426;10.300;2023-04-03T06:51:35;103354.78;;;4.47;100.00
63111;BME280;49201;53.426;10.300;2023-04-03T06:54:01;103344.66;;;4.57;100.00
63111;BME280;49201;53.426;10.300;2023-04-03T06:56:27;103328.03;;;4.71;100.00
63111;BME280;49201;53.426;10.300;2023-04-03T06:58:54;103336.25;;;4.98;100.00
63111;BME280;49201;53.426;10.300;2023-04-03T07:01:23;103277.75;;;4.87;100.00
63111;BME280;49201;53.426;10.300;2023-04-03T07:03:50;103262.75;;;5.00;100.00
63111;BME280;49201;53.426;10.300;2023-04-03T07:06:17;103251.19;;;5.13;100.00
63111;BME280;49201;53.426;10.300;2023-04-03T07:08:43;103251.88;;;5.32;100.00
63111;BME280;49201;53.426;10.300;2023-04-03T07:11:10;103220.22;;;5.39;100.00
63111;BME280;49201;53.426;10.300;2023-04-03T07:13:36;103216.66;;;5.58;100.00
63111;BME280;49201;53.426;10.300;2023-04-03T07:16:02;103195.06;;;5.63;100.00
63111;BME280;49201;53.426;10.300;2023-04-03T07:18:29;103161.00;;;5.83;100.00
63111;BME280;49201;53.426;10.300;2023-04-03T07:20:54;103140.59;;;5.93;100.00
63111;BME280;49201;53.426;10.300;2023-04-03T07:23:21;103148.91;;;6.13;100.00
63111;BME280;49201;53.426;10.300;2023-04-03T07:25:49;103149.00;;;6.03;100.00
63111;BME280;49201;53.426;10.300;2023-04-03T07:28:15;103146.84;;;6.19;100.00
63111;BME280;49201;53.426;10.300;2023-04-03T07:31:02;103145.75;;;6.39;100.00
63111;BME280;49201;53.426;10.300;2023-04-03T07:33:28;103102.06;;;6.44;100.00
63111;BME280;49201;53.426;10.300;2023-04-03T07:35:54;103079.81;;;6.53;100.00
63111;BME280;49201;53.426;10.300;2023-04-03T07:38:19;103064.53;;;6.65;100.00
63111;BME280;49201;53.426;10.300;2023-04-03T07:40:49;102999.13;;;7.00;100.00
63111;BME280;49201;53.426;10.300;2023-04-03T07:43:17;103045.59;;;7.09;100.00
63111;BME280;49201;53.426;10.300;2023-04-03T07:45:43;103020.94;;;7.21;100.00
63111;BME280;49201;53.426;10.300;2023-04-03T07:48:11;102923.44;;;7.23;100.00
63111;BME280;49201;53.426;10.300;2023-04-03T07:50:36;102909.59;;;7.44;100.00
63111;BME280;49201;53.426;10.300;2023-04-03T07:53:03;102855.75;;;7.53;100.00
63111;BME280;49201;53.426;10.300;2023-04-03T07:55:28;102812.91;;;7.60;97.28
63111;BME280;49201;53.426;10.300;2023-04-03T07:57:54;102826.81;;;7.65;97.24
63111;BME280;49201;53.426;10.300;2023-04-03T08:00:20;102767.84;;;7.87;89.92
63111;BME280;49201;53.426;10.300;2023-04-03T08:02:46;102720.75;;;8.09;87.58
63111;BME280;49201;53.426;10.300;2023-04-03T08:05:20;102676.66;;;7.97;84.59
63111;BME280;49201;53.426;10.300;2023-04-03T08:07:47;102683.94;;;8.33;82.63
63111;BME280;49201;53.426;10.300;2023-04-03T08:10:13;102622.28;;;8.40;76.13
63111;BME280;49201;53.426;10.300;2023-04-03T08:12:39;102602.06;;;8.59;76.58
63111;BME280;49201;53.426;10.300;2023-04-03T08:15:05;102624.06;;;8.72;76.65
63111;BME280;49201;53.426;10.300;2023-04-03T08:17:32;102583.88;;;8.84;71.67
63111;BME280;49201;53.426;10.300;2023-04-03T08:19:57;102529.66;;;8.89;65.65
63111;BME280;49201;53.426;10.300;2023-04-03T08:22:23;102551.88;;;9.22;67.63
63111;BME280;49201;53.426;10.300;2023-04-03T08:24:48;102597.88;;;9.06;70.97
63111;BME280;49201;53.426;10.300;2023-04-03T08:27:14;102522.50;;;9.14;62.48
63111;BME280;49201;53.426;10.300;2023-04-03T08:29:40;102500.34;;;9.15;59.39
63111;BME280;49201;53.426;10.300;2023-04-03T08:32:05;102541.66;;;9.38;60.85
63111;BME280;49201;53.426;10.300;2023-04-03T08:34:31;102536.69;;;9.41;58.39
63111;BME280;49201;53.426;10.300;2023-04-03T08:37:00;102515.66;;;9.47;54.04
63111;BME280;49201;53.426;10.300;2023-04-03T08:39:26;102926.13;;;9.71;51.83
63111;BME280;49201;53.426;10.300;2023-04-03T08:41:52;103110.50;;;9.74;51.76
63111;BME280;49201;53.426;10.300;2023-04-03T08:44:39;103138.94;;;9.93;51.83
63111;BME280;49201;53.426;10.300;2023-04-03T08:49:51;103201.59;;;10.12;53.05
63111;BME280;49201;53.426;10.300;2023-04-03T08:52:23;103190.91;;;10.19;52.23
63111;BME280;49201;53.426;10.300;2023-04-03T08:55:02;103202.53;;;10.14;52.24
63111;BME280;49201;53.426;10.300;2023-04-03T08:57:36;103198.22;;;10.42;51.60
63111;BME280;49201;53.426;10.300;2023-04-03T09:00:20;103221.38;;;10.44;52.55
63111;BME280;49201;53.426;10.300;2023-04-03T09:05:19;103198.47;;;10.76;46.76
63111;BME280;49201;53.426;10.300;2023-04-03T09:07:48;103208.72;;;10.76;46.83
63111;BME280;49201;53.426;10.300;2023-04-03T09:10:24;103226.81;;;10.93;46.44
63111;BME280;49201;53.426;10.300;2023-04-03T09:13:33;103279.78;;;10.93;49.66
63111;BME280;49201;53.426;10.300;2023-04-03T09:16:14;103226.34;;;11.45;46.20
63111;BME280;49201;53.426;10.300;2023-04-03T09:18:50;103235.69;;;11.75;46.37
63111;BME280;49201;53.426;10.300;2023-04-03T09:21:25;103287.34;;;11.51;45.99
63111;BME280;49201;53.426;10.300;2023-04-03T09:23:56;103285.03;;;11.55;45.91
63111;BME280;49201;53.426;10.300;2023-04-03T09:26:26;103274.06;;;11.88;46.51
63111;BME280;49201;53.426;10.300;2023-04-03T09:28:58;103246.84;;;12.08;43.58
63111;BME280;49201;53.426;10.300;2023-04-03T09:31:28;103279.75;;;12.31;45.39
63111;BME280;49201;53.426;10.300;2023-04-03T09:34:31;103267.19;;;12.37;44.16
63111;BME280;49201;53.426;10.300;2023-04-03T09:37:00;103266.72;;;12.28;44.27
63111;BME280;49201;53.426;10.300;2023-04-03T09:39:33;103280.88;;;12.36;44.25
63111;BME280;49201;53.426;10.300;2023-04-03T09:42:19;103281.16;;;12.58;46.15
63111;BME280;49201;53.426;10.300;2023-04-03T09:44:56;103251.97;;;12.57;43.51
63111;BME280;49201;53.426;10.300;2023-04-03T09:47:26;103270.81;;;12.74;44.01
63111;BME280;49201;53.426;10.300;2023-04-03T09:52:41;103277.22;;;12.64;42.46
63111;BME280;49201;53.426;10.300;2023-04-03T09:55:13;103287.31;;;12.95;44.26
63111;BME280;49201;53.426;10.300;2023-04-03T09:57:39;103252.06;;;13.10;42.44
63111;BME280;49201;53.426;10.300;2023-04-03T10:00:10;103279.97;;;13.38;44.38
63111;BME280;49201;53.426;10.300;2023-04-03T10:02:44;103269.41;;;13.68;43.14
63111;BME280;49201;53.426;10.300;2023-04-03T10:05:34;103240.03;;;13.46;39.31
63111;BME280;49201;53.426;10.300;2023-04-03T10:08:30;103259.94;;;14.43;40.94
63111;BME280;49201;53.426;10.300;2023-04-03T10:11:12;103254.41;;;15.82;40.66
63111;BME280;49201;53.426;10.300;2023-04-03T10:13:55;103229.91;;;19.87;33.53
63111;BME280;49201;53.426;10.300;2023-04-03T10:16:27;103320.03;;;21.78;30.41
63111;BME280;49201;53.426;10.300;2023-04-03T10:19:05;103339.44;;;22.75;28.48
63111;BME280;49201;53.426;10.300;2023-04-03T10:26:52;103383.47;;;18.88;33.19
63111;BME280;49201;53.426;10.300;2023-04-03T10:29:42;103401.47;;;18.22;32.81
63111;BME280;49201;53.426;10.300;2023-04-03T10:32:43;103398.69;;;17.60;33.63
63111;BME280;49201;53.426;10.300;2023-04-03T10:38:11;103413.69;;;15.00;35.08
63111;BME280;49201;53.426;10.300;2023-04-03T10:44:35;103429.59;;;13.96;37.35
63111;BME280;49201;53.426;10.300;2023-04-03T10:57:59;103401.44;;;14.01;36.18
63111;BME280;49201;53.426;10.300;2023-04-03T11:00:42;103395.41;;;14.75;36.53
63111;BME280;49201;53.426;10.300;2023-04-03T11:05:53;103392.56;;;13.77;37.05
63111;BME280;49201;53.426;10.300;2023-04-03T11:08:49;103397.25;;;12.83;37.29
63111;BME280;49201;53.426;10.300;2023-04-03T11:11:24;103394.13;;;14.27;37.76
63111;BME280;49201;53.426;10.300;2023-04-03T11:13:58;103376.22;;;14.68;36.48
63111;BME280;49201;53.426;10.300;2023-04-03T11:16:31;103367.53;;;14.66;36.10
63111;BME280;49201;53.426;10.300;2023-04-03T11:19:14;103369.09;;;15.02;37.07
63111;BME280;49201;53.426;10.300;2023-04-03T11:21:54;103378.28;;;14.56;37.19
63111;BME280;49201;53.426;10.300;2023-04-03T11:24:25;103371.69;;;15.02;37.44
63111;BME280;49201;53.426;10.300;2023-04-03T11:26:54;103376.84;;;14.83;38.70
63111;BME280;49201;53.426;10.300;2023-04-03T11:29:23;103366.41;;;15.20;36.63
63111;BME280;49201;53.426;10.300;2023-04-03T11:34:40;103355.34;;;14.24;36.69
63111;BME280;49201;53.426;10.300;2023-04-03T11:40:01;103355.16;;;14.99;36.56
63111;BME280;49201;53.426;10.300;2023-04-03T11:47:46;103345.38;;;15.11;36.45
63111;BME280;49201;53.426;10.300;2023-04-03T11:53:01;103355.47;;;14.10;38.15
63111;BME280;49201;53.426;10.300;2023-04-03T12:08:45;103321.91;;;14.86;37.57
63111;BME280;49201;53.426;10.300;2023-04-03T12:37:46;103273.91;;;15.52;33.63
63111;BME280;49201;53.426;10.300;2023-04-03T12:40:37;103268.16;;;15.17;34.70
63111;BME280;49201;53.426;10.300;2023-04-03T12:48:38;103317.69;;;13.55;38.17
63111;BME280;49201;53.426;10.300;2023-04-03T12:51:04;103330.75;;;13.77;38.44
63111;BME280;49201;53.426;10.300;2023-04-03T12:53:37;103319.19;;;12.65;39.17
63111;BME280;49201;53.426;10.300;2023-04-03T12:58:48;103303.44;;;13.26;37.08
63111;BME280;49201;53.426;10.300;2023-04-03T13:01:16;103306.56;;;13.56;38.00
63111;BME280;49201;53.426;10.300;2023-04-03T13:03:49;103296.78;;;13.66;36.99
63111;BME280;49201;53.426;10.300;2023-04-03T13:06:21;103294.44;;;13.53;36.99
63111;BME280;49201;53.426;10.300;2023-04-03T13:08:58;103294.63;;;14.31;37.10
63111;BME280;49201;53.426;10.300;2023-04-03T13:11:27;103299.31;;;13.84;37.16
63111;BME280;49201;53.426;10.300;2023-04-03T13:14:02;103288.50;;;13.91;36.20
63111;BME280;49201;53.426;10.300;2023-04-03T13:16:31;103289.09;;;13.85;36.40
63111;BME280;49201;53.426;10.300;2023-04-03T13:18:57;103287.72;;;13.20;36.36
63111;BME280;49201;53.426;10.300;2023-04-03T13:21:27;103276.28;;;14.06;35.78
63111;BME280;49201;53.426;10.300;2023-04-03T13:24:01;103268.50;;;14.63;36.42
63111;BME280;49201;53.426;10.300;2023-04-03T13:26:31;103271.91;;;15.03;37.04
63111;BME280;49201;53.426;10.300;2023-04-03T13:29:04;103270.41;;;14.27;35.23
63111;BME280;49201;53.426;10.300;2023-04-03T13:31:38;103265.81;;;13.65;35.13
63111;BME280;49201;53.426;10.300;2023-04-03T13:34:12;103270.47;;;13.54;37.06
63111;BME280;49201;53.426;10.300;2023-04-03T13:36:54;103285.69;;;14.05;37.78
63111;BME280;49201;53.426;10.300;2023-04-03T13:39:29;103280.84;;;13.92;37.85
63111;BME280;49201;53.426;10.300;2023-04-03T13:41:58;103289.06;;;14.22;38.35
63111;BME280;49201;53.426;10.300;2023-04-03T13:44:34;103284.53;;;13.80;36.96
63111;BME280;49201;53.426;10.300;2023-04-03T13:47:22;103285.06;;;13.36;37.98
63111;BME280;49201;53.426;10.300;2023-04-03T13:55:20;103287.03;;;13.42;39.17
63111;BME280;49201;53.426;10.300;2023-04-03T14:00:30;103274.63;;;13.70;38.49
63111;BME280;49201;53.426;10.300;2023-04-03T14:02:57;103270.59;;;13.21;38.45
63111;BME280;49201;53.426;10.300;2023-04-03T14:05:23;103271.47;;;13.04;37.98
63111;BME280;49201;53.426;10.300;2023-04-03T14:07:51;103269.25;;;13.29;38.14
63111;BME280;49201;53.426;10.300;2023-04-03T14:10:17;103272.53;;;12.91;38.21
63111;BME280;49201;53.426;10.300;2023-04-03T14:12:42;103258.28;;;13.33;37.35
63111;BME280;49201;53.426;10.300;2023-04-03T14:15:33;103253.38;;;13.20;35.98
63111;BME280;49201;53.426;10.300;2023-04-03T14:17:59;103247.88;;;13.30;36.69
63111;BME280;49201;53.426;10.300;2023-04-03T14:20:26;103247.75;;;13.09;35.78
63111;BME280;49201;53.426;10.300;2023-04-03T14:22:53;103257.06;;;13.07;37.62
63111;BME280;49201;53.426;10.300;2023-04-03T14:25:20;103268.53;;;13.14;39.43
63111;BME280;49201;53.426;10.300;2023-04-03T14:27:48;103279.19;;;13.39;38.77
63111;BME280;49201;53.426;10.300;2023-04-03T14:30:29;103275.03;;;12.89;39.12
63111;BME280;49201;53.426;10.300;2023-04-03T14:32:55;103271.63;;;13.24;38.61
63111;BME280;49201;53.426;10.300;2023-04-03T14:35:21;103260.28;;;13.38;38.10
63111;BME280;49201;53.426;10.300;2023-04-03T14:37:47;103258.84;;;12.74;38.20